Time;durP1;ratioP1;P1;durP2;ratioP2;P2;SDS_P1;SDS_P2;PMS_P1;PMS_P2;Temp;Humidity;BMP_temperature;BMP_pressure;BME280_temperature;BME280_humidity;BME280_pressure;Samples;Min_cycle;Max_cycle;Signal;HPM_P1;HPM_P2
2022/02/17 00:03:21;;;;;;;14.97;7.20;;;;;;;2.62;100.00;100421.38;30679740;28;20061;-73
2022/02/17 00:18:23;;;;;;;22.60;8.30;;;;;;;2.75;100.00;100395.97;30742819;28;20058;-74
2022/02/17 00:33:25;;;;;;;20.93;9.30;;;;;;;2.97;100.00;100370.25;30717557;28;20090;-74
2022/02/17 00:48:27;;;;;;;22.17;8.67;;;;;;;3.25;100.00;100364.56;30712209;29;20410;-73
2022/02/17 01:03:29;;;;;;;14.00;6.70;;;;;;;3.07;100.00;100350.88;30734612;29;20288;-74
2022/02/17 01:18:31;;;;;;;16.07;7.43;;;;;;;2.82;100.00;100323.69;30739788;28;20421;-74
2022/02/17 01:33:36;;;;;;;14.20;6.63;;;;;;;2.60;100.00;100332.53;30758468;28;20138;-74
2022/02/17 01:48:38;;;;;;;17.03;7.00;;;;;;;2.55;100.00;100320.22;30740442;28;20051;-75
2022/02/17 02:03:42;;;;;;;9.57;4.83;;;;;;;2.52;100.00;100314.78;30759403;28;20051;-74
2022/02/17 02:18:43;;;;;;;28.30;7.77;;;;;;;2.56;100.00;100303.00;30715424;28;20055;-73
2022/02/17 02:33:46;;;;;;;13.63;6.53;;;;;;;2.48;100.00;100297.88;30698930;28;20065;-74
2022/02/17 02:48:47;;;;;;;13.50;6.57;;;;;;;2.30;100.00;100301.03;30712913;28;20055;-73
2022/02/17 03:03:49;;;;;;;12.37;6.00;;;;;;;2.32;100.00;100306.81;30699537;28;20058;-74
2022/02/17 03:18:51;;;;;;;15.70;7.97;;;;;;;2.48;100.00;100303.25;30691605;28;20051;-73
2022/02/17 03:33:53;;;;;;;17.97;7.03;;;;;;;2.52;100.00;100288.00;30689298;28;20141;-74
2022/02/17 03:48:55;;;;;;;17.00;7.00;;;;;;;2.59;100.00;100250.59;30746505;28;20051;-74
2022/02/17 04:03:58;;;;;;;18.40;7.70;;;;;;;2.47;100.00;100229.34;30753583;28;20406;-73
2022/02/17 04:18:59;;;;;;;13.40;6.73;;;;;;;2.46;100.00;100209.03;30736291;28;20134;-75
2022/02/17 04:34:02;;;;;;;17.20;6.83;;;;;;;2.33;100.00;100201.22;30706741;29;20047;-73
2022/02/17 04:49:04;;;;;;;18.33;7.27;;;;;;;2.16;100.00;100180.25;30715190;28;20051;-74
2022/02/17 05:04:06;;;;;;;11.53;6.13;;;;;;;2.12;100.00;100174.09;30706711;28;20069;-74
2022/02/17 05:19:07;;;;;;;11.50;5.40;;;;;;;2.16;100.00;100148.13;30688583;28;20496;-74
2022/02/17 05:34:09;;;;;;;14.67;6.67;;;;;;;2.15;100.00;100129.72;30755884;28;20051;-74
2022/02/17 05:49:11;;;;;;;15.03;6.30;;;;;;;2.18;100.00;100113.72;30734216;28;20142;-74
2022/02/17 06:04:13;;;;;;;14.07;7.33;;;;;;;2.23;100.00;100094.66;30713211;28;20061;-74
2022/02/17 06:19:15;;;;;;;14.30;5.83;;;;;;;2.34;100.00;100076.84;30719515;28;20528;-73
2022/02/17 06:34:17;;;;;;;19.60;8.30;;;;;;;2.50;100.00;100078.56;30692218;28;20059;-75
2022/02/17 06:49:19;;;;;;;17.23;7.77;;;;;;;2.62;100.00;100059.56;30705735;28;20418;-74
2022/02/17 07:04:20;;;;;;;14.57;7.23;;;;;;;2.67;100.00;100029.75;30740954;28;20059;-73
2022/02/17 07:19:22;;;;;;;18.87;7.30;;;;;;;2.81;100.00;100005.78;30682033;28;20165;-74
2022/02/17 07:34:24;;;;;;;16.43;7.10;;;;;;;2.94;100.00;99999.00;30721816;28;20055;-75
2022/02/17 07:49:26;;;;;;;12.87;7.53;;;;;;;3.38;100.00;99974.09;30693096;28;20047;-74
2022/02/17 08:04:30;;;;;;;13.97;6.27;;;;;;;4.01;100.00;99932.66;30717294;28;20059;-74
2022/02/17 08:19:33;;;;;;;12.00;5.73;;;;;;;4.22;100.00;99930.03;30794919;28;20139;-74
2022/02/17 08:34:35;;;;;;;10.97;5.83;;;;;;;4.45;100.00;99894.78;30721384;28;20051;-74
2022/02/17 08:49:37;;;;;;;8.90;5.63;;;;;;;4.88;100.00;99860.63;30719254;28;20043;-74
2022/02/17 09:04:39;;;;;;;10.20;5.20;;;;;;;5.27;98.21;99833.63;30759041;28;20047;-74
2022/02/17 09:19:42;;;;;;;9.20;5.53;;;;;;;5.67;95.36;99805.41;30707776;28;20047;-73
2022/02/17 09:34:45;;;;;;;12.10;5.97;;;;;;;6.05;92.65;99759.84;30705422;28;20051;-74
2022/02/17 09:49:47;;;;;;;5.53;3.47;;;;;;;6.38;91.28;99748.41;30743775;28;20044;-72
2022/02/17 10:04:53;;;;;;;9.30;4.93;;;;;;;6.81;89.29;99702.16;30701785;28;20506;-73
2022/02/17 10:19:55;;;;;;;9.40;4.10;;;;;;;7.04;86.81;99678.00;30759063;28;20059;-75
2022/02/17 10:35:26;;;;;;;8.80;4.40;;;;;;;7.22;80.67;99628.41;30760238;28;20059;-74
2022/02/17 10:50:28;;;;;;;7.30;4.27;;;;;;;7.70;74.27;99566.72;30697409;28;20051;-75
2022/02/17 11:05:30;;;;;;;7.43;4.13;;;;;;;7.99;71.62;99563.53;30719133;28;20062;-73
2022/02/17 11:20:37;;;;;;;7.57;3.87;;;;;;;8.16;71.48;99511.06;30719103;29;20143;-74
2022/02/17 11:35:39;;;;;;;9.97;4.13;;;;;;;8.48;70.48;99500.44;30724488;28;20055;-75
2022/02/17 11:50:41;;;;;;;11.80;4.90;;;;;;;9.07;66.78;99458.88;30728768;28;20048;-73
2022/02/17 12:05:43;;;;;;;4.73;3.30;;;;;;;9.09;65.86;99461.19;30761785;28;20051;-74
2022/02/17 12:20:45;;;;;;;10.97;4.33;;;;;;;9.37;63.96;99417.16;30765085;28;20055;-73
2022/02/17 12:35:51;;;;;;;17.27;5.17;;;;;;;10.55;59.73;99366.56;30732040;28;20057;-74
2022/02/17 12:50:53;;;;;;;9.10;4.33;;;;;;;10.71;57.26;99329.63;30757387;28;20061;-72
2022/02/17 13:21:22;;;;;;;9.87;4.17;;;;;;;10.41;56.01;99304.59;30687700;28;20043;-74
2022/02/17 13:36:25;;;;;;;7.03;3.50;;;;;;;10.32;55.58;99271.94;30715472;28;20054;-74
2022/02/17 13:51:30;;;;;;;5.47;3.47;;;;;;;10.14;55.68;99237.22;30710811;28;20047;-73
2022/02/17 14:06:33;;;;;;;9.27;4.53;;;;;;;9.65;57.23;99196.16;30747368;28;20320;-74
2022/02/17 14:21:36;;;;;;;12.03;5.00;;;;;;;8.85;62.67;99181.81;30741528;29;20063;-74
2022/02/17 14:36:38;;;;;;;9.63;4.70;;;;;;;8.19;69.30;99172.28;30744620;28;20054;-74
2022/02/17 14:51:40;;;;;;;11.17;5.00;;;;;;;7.64;73.05;99152.38;30725838;28;20062;-74
2022/02/17 15:06:42;;;;;;;6.53;3.37;;;;;;;7.28;74.58;99138.91;30713947;28;20055;-74
2022/02/17 15:21:44;;;;;;;6.67;4.23;;;;;;;6.91;77.00;99113.06;30698240;28;20066;-75
2022/02/17 15:36:45;;;;;;;15.20;5.70;;;;;;;6.60;79.73;99071.34;30764653;28;20150;-73
2022/02/17 15:51:47;;;;;;;8.77;4.37;;;;;;;6.34;82.82;99081.84;30732173;28;20063;-75
2022/02/17 16:06:49;;;;;;;12.07;5.57;;;;;;;6.06;84.29;99060.81;30741740;28;20052;-74
2022/02/17 16:21:51;;;;;;;10.73;5.17;;;;;;;5.76;85.99;99032.81;30723937;28;20051;-75
2022/02/17 16:36:53;;;;;;;11.80;5.53;;;;;;;5.48;87.80;99044.03;30759940;28;20726;-74
2022/02/17 16:51:56;;;;;;;10.33;6.10;;;;;;;5.27;88.42;99044.38;30723499;28;20047;-73
2022/02/17 17:06:58;;;;;;;8.53;4.77;;;;;;;5.02;89.37;99026.69;30717017;28;20063;-76
2022/02/17 17:22:05;;;;;;;11.70;5.97;;;;;;;4.78;90.81;98976.69;30733430;28;20090;-74
2022/02/17 17:37:07;;;;;;;12.73;5.60;;;;;;;4.59;92.95;98963.91;30737812;28;20054;-75
2022/02/17 17:52:09;;;;;;;5.93;3.30;;;;;;;4.41;92.80;98959.53;30701158;28;20393;-76
2022/02/17 18:07:11;;;;;;;4.97;3.90;;;;;;;4.42;93.05;98954.94;30724129;28;20066;-74
2022/02/17 18:22:12;;;;;;;13.17;6.20;;;;;;;4.38;93.58;98965.72;30719239;28;20569;-75
2022/02/17 18:37:15;;;;;;;11.10;4.80;;;;;;;4.31;93.67;98960.44;30694419;28;20063;-75
2022/02/17 18:52:17;;;;;;;11.67;5.77;;;;;;;4.35;93.68;98933.53;30717890;28;20055;-75
2022/02/17 19:07:19;;;;;;;14.47;6.60;;;;;;;4.33;93.37;98893.63;30705800;28;20494;-74
2022/02/17 19:22:20;;;;;;;16.33;6.67;;;;;;;4.34;93.29;98878.25;30744840;28;20055;-74
2022/02/17 19:37:22;;;;;;;8.77;5.33;;;;;;;4.29;92.33;98859.91;30733694;28;20058;-73
2022/02/17 19:52:24;;;;;;;9.60;5.20;;;;;;;4.27;91.64;98835.38;30792135;28;20063;-75
2022/02/17 20:07:29;;;;;;;13.10;5.30;;;;;;;4.28;91.07;98820.78;30712384;28;20406;-76
2022/02/17 20:22:32;;;;;;;11.97;5.40;;;;;;;4.28;90.01;98810.03;30726792;28;20055;-73
2022/02/17 20:37:36;;;;;;;13.13;6.77;;;;;;;4.27;90.23;98782.41;30750675;28;20086;-76
2022/02/17 20:52:40;;;;;;;12.77;6.70;;;;;;;4.33;89.20;98774.66;30732171;28;20055;-73
2022/02/17 21:07:42;;;;;;;12.80;6.60;;;;;;;4.49;89.27;98739.09;30715843;28;20047;-74
2022/02/17 21:22:44;;;;;;;10.20;5.17;;;;;;;4.55;88.98;98732.06;30709317;28;20059;-75
2022/02/17 21:37:46;;;;;;;12.87;6.87;;;;;;;4.62;89.24;98705.81;30722914;28;20053;-74
2022/02/17 21:52:48;;;;;;;18.90;6.53;;;;;;;4.77;88.47;98700.94;30730664;28;20051;-74
2022/02/17 22:07:50;;;;;;;13.37;5.97;;;;;;;4.78;88.97;98660.19;30741326;28;20055;-72
2022/02/17 22:22:53;;;;;;;16.87;7.37;;;;;;;4.83;90.71;98644.75;30738527;28;20051;-75
2022/02/17 22:37:55;;;;;;;11.93;6.23;;;;;;;4.94;93.44;98629.94;30767063;28;20059;-73
2022/02/17 22:52:57;;;;;;;15.63;7.33;;;;;;;4.54;100.00;98628.41;30742141;28;20062;-74
2022/02/17 23:23:20;;;;;;;11.73;6.07;;;;;;;4.24;100.00;98627.44;30699066;28;20479;-75
2022/02/17 23:38:25;;;;;;;20.03;8.87;;;;;;;4.16;100.00;98609.16;30702815;28;20043;-73
2022/02/17 23:53:28;;;;;;;19.77;9.70;;;;;;;4.31;100.00;98611.19;30714929;28;20063;-75
